createdAt,value
2023-02-15T00:01:10.186Z,14.83
2023-02-15T00:03:41.927Z,14.22
2023-02-15T00:06:13.605Z,14.82
2023-02-15T00:08:45.423Z,14.61
2023-02-15T00:11:19.113Z,14.46
2023-02-15T00:13:50.915Z,14.88
2023-02-15T00:16:22.546Z,15.30
2023-02-15T00:18:54.161Z,15.37
2023-02-15T00:21:25.748Z,14.99
2023-02-15T00:23:59.408Z,16.15
2023-02-15T00:26:31.068Z,16.34
2023-02-15T00:29:02.962Z,16.27
2023-02-15T00:31:35.834Z,16.96
2023-02-15T00:34:16.223Z,17.20
2023-02-15T00:36:48.560Z,17.07
2023-02-15T00:39:20.549Z,17.22
2023-02-15T00:41:52.156Z,17.12
2023-02-15T00:44:23.796Z,17.36
2023-02-15T00:46:55.377Z,18.57
2023-02-15T00:49:26.982Z,19.18
2023-02-15T00:51:59.276Z,19.56
2023-02-15T00:54:30.922Z,19.69
2023-02-15T00:57:02.556Z,19.54
2023-02-15T00:59:34.199Z,19.88
2023-02-15T01:02:05.865Z,19.56
2023-02-15T01:04:37.533Z,19.08
2023-02-15T01:07:09.194Z,19.07
2023-02-15T01:09:40.772Z,18.49
2023-02-15T01:12:12.355Z,18.42
2023-02-15T01:14:43.929Z,17.83
2023-02-15T01:17:15.567Z,17.62
2023-02-15T01:19:47.218Z,16.64
2023-02-15T01:22:20.214Z,16.92
2023-02-15T01:24:51.881Z,16.41
2023-02-15T01:27:23.464Z,17.20
2023-02-15T01:29:55.049Z,16.29
2023-02-15T01:32:27.430Z,16.08
2023-02-15T01:34:59.099Z,16.08
2023-02-15T01:37:32.619Z,15.76
2023-02-15T01:40:08.102Z,16.67
2023-02-15T01:42:39.698Z,16.12
2023-02-15T01:45:32.925Z,16.21
2023-02-15T01:48:26.647Z,16.42
2023-02-15T01:51:03.284Z,16.37
2023-02-15T01:53:48.414Z,16.22
2023-02-15T01:56:28.788Z,16.47
2023-02-15T01:59:07.202Z,16.21
2023-02-15T02:01:39.408Z,16.21
2023-02-15T02:04:32.422Z,15.93
2023-02-15T02:07:07.044Z,16.00
2023-02-15T02:09:38.705Z,16.23
2023-02-15T02:12:11.176Z,16.80
2023-02-15T02:14:48.195Z,16.92
2023-02-15T02:17:22.903Z,17.49
2023-02-15T02:20:08.397Z,17.96
2023-02-15T02:23:06.156Z,17.24
2023-02-15T02:26:02.463Z,17.87
2023-02-15T02:29:07.371Z,18.25
2023-02-15T02:31:49.183Z,18.38
2023-02-15T02:34:30.941Z,19.52
2023-02-15T02:37:38.512Z,20.26
2023-02-15T02:40:29.496Z,21.95
2023-02-15T02:43:19.941Z,21.15
2023-02-15T02:45:59.591Z,21.57
2023-02-15T02:48:34.061Z,20.30
2023-02-15T02:51:05.658Z,20.75
2023-02-15T02:53:37.506Z,20.88
2023-02-15T02:56:42.838Z,20.35
2023-02-15T02:59:24.000Z,20.94
2023-02-15T03:02:07.236Z,20.03
2023-02-15T03:04:46.144Z,19.63
2023-02-15T03:07:23.707Z,19.89
2023-02-15T03:10:00.621Z,19.94
2023-02-15T03:12:36.766Z,20.11
2023-02-15T03:15:35.856Z,19.99
2023-02-15T03:18:08.928Z,19.23
2023-02-15T03:20:41.074Z,19.48
2023-02-15T03:23:24.288Z,19.45
2023-02-15T03:26:04.270Z,18.21
2023-02-15T03:28:46.201Z,18.08
2023-02-15T03:31:23.903Z,18.31
2023-02-15T03:34:08.133Z,18.43
2023-02-15T03:36:47.991Z,18.02
2023-02-15T03:39:48.686Z,18.61
2023-02-15T03:42:33.752Z,18.58
2023-02-15T03:45:12.532Z,17.78
2023-02-15T03:47:49.905Z,17.42
2023-02-15T03:50:36.462Z,16.91
2023-02-15T03:53:13.773Z,17.12
2023-02-15T03:55:49.918Z,17.45
2023-02-15T03:58:21.905Z,17.38
2023-02-15T04:01:01.212Z,17.27
2023-02-15T04:03:50.708Z,16.81
2023-02-15T04:06:22.434Z,16.76
2023-02-15T04:08:54.060Z,17.66
2023-02-15T04:11:25.703Z,16.69
2023-02-15T04:13:57.361Z,16.21
2023-02-15T04:16:31.202Z,16.18
2023-02-15T04:19:02.974Z,16.54
2023-02-15T04:21:34.727Z,17.15
2023-02-15T04:24:06.980Z,17.31
2023-02-15T04:26:38.727Z,17.64
2023-02-15T04:29:10.473Z,17.07
2023-02-15T04:31:42.963Z,16.92
2023-02-15T04:34:15.375Z,17.76
2023-02-15T04:36:47.037Z,17.43
2023-02-15T04:39:19.941Z,17.34
2023-02-15T04:41:51.485Z,17.45
2023-02-15T04:44:23.055Z,17.96
2023-02-15T04:46:54.626Z,17.86
2023-02-15T04:49:26.218Z,17.34
2023-02-15T04:51:57.838Z,17.05
2023-02-15T04:54:29.387Z,17.29
2023-02-15T04:57:01.046Z,17.77
2023-02-15T04:59:32.876Z,17.85
2023-02-15T05:02:04.741Z,17.69
2023-02-15T05:04:36.439Z,17.56
2023-02-15T05:07:08.071Z,17.29
2023-02-15T05:09:39.691Z,18.11
2023-02-15T05:12:11.305Z,18.28
2023-02-15T05:14:42.990Z,17.90
2023-02-15T05:17:14.654Z,18.22
2023-02-15T05:19:46.382Z,18.02
2023-02-15T05:22:18.044Z,18.07
2023-02-15T05:24:49.646Z,17.59
2023-02-15T05:27:21.308Z,17.35
2023-02-15T05:29:52.985Z,16.42
2023-02-15T05:32:25.154Z,16.44
2023-02-15T05:34:56.844Z,16.25
2023-02-15T05:37:28.459Z,16.40
2023-02-15T05:40:00.083Z,16.38
2023-02-15T05:42:31.674Z,16.15
2023-02-15T05:45:03.359Z,16.25
2023-02-15T05:47:34.982Z,17.11
2023-02-15T05:50:07.245Z,16.24
2023-02-15T05:52:38.846Z,15.92
2023-02-15T05:55:10.620Z,16.83
2023-02-15T05:57:42.236Z,17.31
2023-02-15T06:00:14.484Z,17.07
2023-02-15T06:02:46.182Z,17.22
2023-02-15T06:05:17.998Z,16.95
2023-02-15T06:07:49.609Z,17.56
2023-02-15T06:10:21.312Z,16.36
2023-02-15T06:12:52.944Z,17.08
2023-02-15T06:15:24.496Z,17.34
2023-02-15T06:17:56.109Z,17.22
2023-02-15T06:20:27.791Z,17.36
2023-02-15T06:22:59.406Z,16.84
2023-02-15T06:25:30.991Z,17.12
2023-02-15T06:28:02.676Z,17.67
2023-02-15T06:30:34.517Z,18.30
2023-02-15T06:33:06.407Z,17.55
2023-02-15T06:35:38.068Z,18.30
2023-02-15T06:38:09.847Z,18.59
2023-02-15T06:40:41.411Z,17.96
2023-02-15T06:43:13.206Z,18.90
2023-02-15T06:45:44.787Z,18.79
2023-02-15T06:48:16.468Z,19.16
2023-02-15T06:50:48.102Z,18.93
2023-02-15T06:53:19.965Z,19.30
2023-02-15T06:55:51.639Z,19.41
2023-02-15T06:58:23.372Z,19.05
2023-02-15T07:00:55.026Z,19.75
2023-02-15T07:03:26.930Z,19.70
2023-02-15T07:06:01.191Z,19.46
2023-02-15T07:08:33.137Z,20.09
2023-02-15T07:11:06.861Z,20.94
2023-02-15T07:13:38.526Z,19.96
2023-02-15T07:16:10.729Z,18.92
2023-02-15T07:18:42.515Z,18.45
2023-02-15T07:21:14.196Z,18.37
2023-02-15T07:23:45.810Z,18.23
2023-02-15T07:26:17.411Z,18.13
2023-02-15T07:28:49.041Z,17.92
2023-02-15T07:31:20.667Z,17.98
2023-02-15T07:33:52.302Z,18.52
2023-02-15T07:36:23.918Z,18.91
2023-02-15T07:38:55.518Z,19.49
2023-02-15T07:41:27.079Z,19.07
2023-02-15T07:43:58.669Z,18.59
2023-02-15T07:46:31.446Z,18.54
2023-02-15T07:49:03.100Z,18.75
2023-02-15T07:51:35.022Z,19.76
2023-02-15T07:54:06.558Z,22.01
2023-02-15T07:56:38.192Z,22.15
2023-02-15T07:59:10.056Z,21.75
2023-02-15T08:01:41.611Z,22.83
2023-02-15T08:04:13.213Z,23.72
2023-02-15T08:06:44.967Z,23.00
2023-02-15T08:09:16.551Z,24.22
2023-02-15T08:11:48.728Z,25.66
2023-02-15T08:14:22.284Z,26.62
2023-02-15T08:16:56.052Z,27.85
2023-02-15T08:19:30.367Z,28.34
2023-02-15T08:22:12.843Z,27.74
2023-02-15T08:24:44.435Z,29.16
2023-02-15T08:27:16.045Z,30.10
2023-02-15T08:29:47.634Z,31.78
2023-02-15T08:32:19.243Z,31.39
2023-02-15T08:34:50.936Z,30.66
2023-02-15T08:37:22.534Z,28.06
2023-02-15T08:39:54.144Z,28.07
2023-02-15T08:42:25.849Z,29.38
2023-02-15T08:44:57.458Z,29.96
2023-02-15T08:47:29.088Z,30.81
2023-02-15T08:50:00.694Z,33.23
2023-02-15T08:52:32.318Z,33.71
2023-02-15T08:55:04.000Z,35.21
2023-02-15T08:57:35.641Z,34.28
2023-02-15T09:00:07.870Z,34.15
2023-02-15T09:02:39.452Z,34.53
2023-02-15T09:05:11.127Z,33.75
2023-02-15T09:07:42.806Z,34.79
2023-02-15T09:10:14.523Z,35.16
2023-02-15T09:12:46.113Z,35.90
2023-02-15T09:15:17.727Z,35.87
2023-02-15T09:17:49.326Z,35.91
2023-02-15T09:20:21.030Z,37.77
2023-02-15T09:22:56.412Z,38.83
2023-02-15T09:25:28.950Z,38.44
2023-02-15T09:28:00.576Z,38.08
2023-02-15T09:30:32.318Z,38.30
2023-02-15T09:33:04.017Z,38.10
2023-02-15T09:35:35.619Z,38.83
2023-02-15T09:38:07.281Z,37.68
2023-02-15T09:40:55.619Z,37.79
2023-02-15T09:43:50.241Z,38.11
2023-02-15T09:46:53.198Z,38.64
2023-02-15T09:49:24.841Z,37.79
2023-02-15T09:52:14.485Z,37.03
2023-02-15T09:54:57.196Z,37.37
2023-02-15T09:58:06.575Z,37.87
2023-02-15T10:01:04.512Z,38.29
2023-02-15T10:03:54.870Z,38.44
2023-02-15T10:06:57.328Z,36.24
2023-02-15T10:09:41.035Z,35.91
2023-02-15T10:12:40.171Z,36.73
2023-02-15T10:15:25.076Z,39.43
2023-02-15T10:18:26.465Z,38.11
2023-02-15T10:21:16.082Z,39.63
2023-02-15T10:24:18.365Z,39.45
2023-02-15T10:26:50.728Z,39.91
2023-02-15T10:29:36.516Z,39.58
2023-02-15T10:32:26.727Z,38.81
2023-02-15T10:35:05.970Z,38.27
2023-02-15T10:37:52.753Z,38.60
2023-02-15T10:40:30.626Z,38.46
2023-02-15T10:43:30.123Z,38.97
2023-02-15T10:46:04.883Z,39.75
2023-02-15T10:48:47.345Z,37.38
2023-02-15T10:51:39.181Z,38.35
2023-02-15T10:54:35.628Z,37.99
2023-02-15T10:57:26.275Z,38.65
2023-02-15T11:00:00.956Z,36.07
2023-02-15T11:02:35.243Z,37.30
2023-02-15T11:05:32.405Z,37.39
2023-02-15T11:08:09.632Z,37.53
2023-02-15T11:10:47.957Z,37.58
2023-02-15T11:13:25.314Z,35.94
2023-02-15T11:16:00.706Z,35.26
2023-02-15T11:18:38.500Z,36.70
2023-02-15T11:21:27.026Z,36.52
2023-02-15T11:24:01.063Z,35.96
2023-02-15T11:26:44.663Z,33.75
2023-02-15T11:29:22.048Z,33.79
2023-02-15T11:32:05.386Z,34.82
2023-02-15T11:34:51.466Z,35.10
2023-02-15T11:37:50.988Z,36.47
2023-02-15T11:40:31.308Z,34.87
2023-02-15T11:43:33.975Z,37.06
2023-02-15T11:46:10.202Z,34.93
2023-02-15T11:48:43.720Z,35.07
2023-02-15T11:51:20.511Z,34.55
2023-02-15T11:53:53.561Z,30.13
2023-02-15T11:56:27.050Z,32.13
2023-02-15T11:59:09.782Z,27.28
2023-02-15T12:01:46.641Z,29.00
2023-02-15T12:04:27.326Z,32.13
2023-02-15T12:07:25.106Z,32.07
2023-02-15T12:10:24.578Z,33.65
2023-02-15T12:13:31.582Z,33.89
2023-02-15T12:16:12.141Z,32.84
2023-02-15T12:18:48.088Z,31.72
2023-02-15T12:21:32.437Z,30.42
2023-02-15T12:24:21.837Z,26.97
2023-02-15T12:27:20.398Z,31.62
2023-02-15T12:30:01.983Z,31.69
2023-02-15T12:32:53.133Z,29.94
2023-02-15T12:35:32.742Z,31.15
2023-02-15T12:38:22.173Z,33.57
2023-02-15T12:41:04.775Z,35.11
2023-02-15T12:43:38.843Z,37.10
2023-02-15T12:46:24.184Z,36.77
2023-02-15T12:49:12.773Z,36.92
2023-02-15T12:51:47.102Z,38.77
2023-02-15T12:54:36.733Z,37.65
2023-02-15T12:57:28.124Z,38.09
2023-02-15T13:00:25.763Z,37.69
2023-02-15T13:03:00.199Z,39.06
2023-02-15T13:05:44.133Z,39.14
2023-02-15T13:08:21.350Z,39.37
2023-02-15T13:11:09.478Z,41.00
2023-02-15T13:14:17.137Z,41.53
2023-02-15T13:16:53.009Z,40.98
2023-02-15T13:19:47.360Z,40.48
2023-02-15T13:22:49.835Z,39.35
2023-02-15T13:25:30.484Z,42.28
2023-02-15T13:28:05.445Z,43.40
2023-02-15T13:30:43.323Z,43.71
2023-02-15T13:33:37.216Z,43.53
2023-02-15T13:36:18.226Z,42.21
2023-02-15T13:38:52.991Z,40.84
2023-02-15T13:41:51.846Z,41.05
2023-02-15T13:44:52.602Z,39.47
2023-02-15T13:47:51.186Z,40.01
2023-02-15T13:50:59.865Z,38.82
2023-02-15T13:53:47.197Z,37.51
2023-02-15T13:56:32.211Z,38.57
2023-02-15T13:59:16.732Z,39.77
2023-02-15T14:02:13.028Z,40.69
2023-02-15T14:05:23.470Z,38.99
2023-02-15T14:08:04.680Z,38.84
2023-02-15T14:10:47.895Z,39.38
2023-02-15T14:13:54.491Z,40.11
2023-02-15T14:16:57.271Z,39.03
2023-02-15T14:19:46.015Z,34.93
2023-02-15T14:22:23.993Z,37.10
2023-02-15T14:25:09.767Z,36.70
2023-02-15T14:28:01.027Z,34.31
2023-02-15T14:30:40.279Z,34.97
2023-02-15T14:33:39.053Z,31.71
2023-02-15T14:36:19.452Z,28.15
2023-02-15T14:39:09.248Z,31.05
2023-02-15T14:41:54.322Z,30.71
2023-02-15T14:44:46.310Z,29.94
2023-02-15T14:47:32.321Z,35.38
2023-02-15T14:50:42.697Z,38.75
2023-02-15T14:53:28.644Z,33.75
2023-02-15T14:56:20.313Z,34.09
2023-02-15T14:58:51.902Z,32.62
2023-02-15T15:01:38.770Z,31.01
2023-02-15T15:04:22.583Z,32.08
2023-02-15T15:07:09.565Z,33.22
2023-02-15T15:09:45.914Z,35.10
2023-02-15T15:12:23.545Z,37.41
2023-02-15T15:14:55.252Z,36.27
2023-02-15T15:17:33.007Z,35.32
2023-02-15T15:20:26.199Z,29.45
2023-02-15T15:23:15.745Z,29.08
2023-02-15T15:26:18.087Z,28.47
2023-02-15T15:28:49.598Z,27.36
2023-02-15T15:31:35.064Z,28.10
2023-02-15T15:34:28.912Z,29.52
2023-02-15T15:37:21.586Z,29.08
2023-02-15T15:40:08.133Z,28.15
2023-02-15T15:43:26.769Z,27.55
2023-02-15T15:46:06.498Z,28.36
2023-02-15T15:48:41.241Z,30.47
2023-02-15T15:51:21.761Z,32.67
2023-02-15T15:53:54.830Z,33.83
2023-02-15T15:56:35.325Z,35.06
2023-02-15T15:59:14.528Z,34.82
2023-02-15T16:01:47.366Z,34.84
2023-02-15T16:04:31.378Z,36.34
2023-02-15T16:07:18.288Z,36.51
2023-02-15T16:09:57.737Z,36.76
2023-02-15T16:12:33.873Z,37.53
2023-02-15T16:15:15.963Z,36.98
2023-02-15T16:17:54.882Z,37.07
2023-02-15T16:20:37.888Z,38.99
2023-02-15T16:23:24.862Z,40.00
2023-02-15T16:25:59.156Z,39.42
2023-02-15T16:28:30.968Z,37.87
2023-02-15T16:31:07.427Z,38.28
2023-02-15T16:33:41.083Z,37.58
2023-02-15T16:36:21.766Z,38.71
2023-02-15T16:38:53.321Z,37.79
2023-02-15T16:41:30.711Z,38.29
2023-02-15T16:44:22.720Z,36.67
2023-02-15T16:46:55.494Z,38.00
2023-02-15T16:49:30.170Z,36.55
2023-02-15T16:52:07.605Z,36.43
2023-02-15T16:54:43.664Z,33.11
2023-02-15T16:57:29.115Z,32.07
2023-02-15T17:00:08.114Z,32.63
2023-02-15T17:02:55.706Z,33.88
2023-02-15T17:05:41.674Z,35.17
2023-02-15T17:08:19.997Z,35.09
2023-02-15T17:11:01.009Z,35.93
2023-02-15T17:13:33.324Z,35.78
2023-02-15T17:16:06.129Z,34.00
2023-02-15T17:18:45.546Z,33.13
2023-02-15T17:21:26.192Z,31.83
2023-02-15T17:24:02.143Z,32.45
2023-02-15T17:26:38.153Z,33.43
2023-02-15T17:29:29.709Z,32.94
2023-02-15T17:32:03.027Z,34.55
2023-02-15T17:34:49.987Z,35.83
2023-02-15T17:37:37.320Z,35.63
2023-02-15T17:40:22.077Z,33.45
2023-02-15T17:42:54.984Z,33.06
2023-02-15T17:45:34.306Z,32.87
2023-02-15T17:48:07.108Z,34.21
2023-02-15T17:50:38.738Z,34.12
2023-02-15T17:53:12.580Z,32.97
2023-02-15T17:55:45.097Z,33.25
2023-02-15T17:58:19.072Z,33.66
2023-02-15T18:00:57.963Z,33.98
2023-02-15T18:03:42.998Z,32.66
2023-02-15T18:06:15.145Z,33.11
2023-02-15T18:08:46.779Z,33.39
2023-02-15T18:11:18.550Z,34.18
2023-02-15T18:13:50.202Z,35.02
2023-02-15T18:16:26.313Z,35.73
2023-02-15T18:18:57.984Z,37.98
2023-02-15T18:21:29.588Z,38.34
2023-02-15T18:24:01.343Z,38.66
2023-02-15T18:26:32.931Z,41.15
2023-02-15T18:29:04.554Z,40.52
2023-02-15T18:31:36.762Z,42.82
2023-02-15T18:34:29.362Z,42.03
2023-02-15T18:37:04.562Z,41.04
2023-02-15T18:39:46.542Z,40.53
2023-02-15T18:42:31.683Z,40.66
2023-02-15T18:45:22.500Z,40.54
2023-02-15T18:47:54.626Z,40.41
2023-02-15T18:50:33.548Z,40.22
2023-02-15T18:53:12.568Z,43.13
2023-02-15T18:55:44.479Z,44.88
2023-02-15T18:58:21.798Z,43.24
2023-02-15T19:00:53.446Z,44.23
2023-02-15T19:03:25.191Z,42.95
2023-02-15T19:05:56.970Z,43.47
2023-02-15T19:08:29.037Z,42.93
2023-02-15T19:11:01.458Z,44.28
2023-02-15T19:13:35.844Z,44.81
2023-02-15T19:16:14.912Z,44.15
2023-02-15T19:18:46.510Z,43.94
2023-02-15T19:21:18.172Z,43.33
2023-02-15T19:23:57.564Z,44.00
2023-02-15T19:26:44.173Z,44.60
2023-02-15T19:29:25.211Z,44.14
2023-02-15T19:31:57.331Z,43.56
2023-02-15T19:34:28.998Z,46.52
2023-02-15T19:37:00.674Z,46.84
2023-02-15T19:39:40.399Z,47.68
2023-02-15T19:42:14.868Z,47.84
2023-02-15T19:44:46.462Z,47.03
2023-02-15T19:47:18.460Z,46.10
2023-02-15T19:49:50.176Z,45.70
2023-02-15T19:52:22.725Z,47.08
2023-02-15T19:54:55.497Z,46.39
2023-02-15T19:57:27.192Z,46.67
2023-02-15T20:00:03.154Z,45.84
2023-02-15T20:02:39.210Z,45.64
2023-02-15T20:05:11.024Z,45.25
2023-02-15T20:07:46.719Z,44.94
2023-02-15T20:10:25.148Z,46.32
2023-02-15T20:12:58.001Z,47.04
2023-02-15T20:15:33.216Z,46.89
2023-02-15T20:18:04.917Z,42.22
2023-02-15T20:21:03.606Z,41.10
2023-02-15T20:23:36.837Z,41.96
2023-02-15T20:26:26.387Z,39.87
2023-02-15T20:28:58.230Z,42.14
2023-02-15T20:31:30.029Z,43.17
2023-02-15T20:34:01.894Z,42.19
2023-02-15T20:36:34.180Z,41.66
2023-02-15T20:39:15.960Z,41.66
2023-02-15T20:41:48.475Z,40.84
2023-02-15T20:44:38.231Z,41.22
2023-02-15T20:47:10.126Z,41.28
2023-02-15T20:49:41.817Z,40.11
2023-02-15T20:52:20.753Z,39.19
2023-02-15T20:54:52.491Z,39.22
2023-02-15T20:57:24.207Z,39.26
2023-02-15T20:59:55.997Z,38.00
2023-02-15T21:02:27.555Z,37.77
2023-02-15T21:04:59.289Z,37.70
2023-02-15T21:07:31.045Z,37.83
2023-02-15T21:10:02.811Z,36.30
2023-02-15T21:12:34.372Z,36.18
2023-02-15T21:15:36.417Z,35.82
2023-02-15T21:18:22.257Z,36.79
2023-02-15T21:20:57.194Z,37.01
2023-02-15T21:23:34.923Z,36.23
2023-02-15T21:26:16.793Z,37.87
2023-02-15T21:28:50.647Z,38.14
2023-02-15T21:31:25.503Z,38.59
2023-02-15T21:33:57.103Z,39.38
2023-02-15T21:36:28.703Z,39.20
2023-02-15T21:39:00.654Z,39.31
2023-02-15T21:41:32.681Z,38.57
2023-02-15T21:44:15.373Z,38.86
2023-02-15T21:46:46.994Z,38.46
2023-02-15T21:49:18.632Z,38.46
2023-02-15T21:51:50.394Z,40.05
2023-02-15T21:54:22.026Z,39.78
2023-02-15T21:56:53.662Z,40.02
2023-02-15T21:59:26.961Z,39.13
2023-02-15T22:01:58.586Z,38.45
2023-02-15T22:04:30.564Z,37.06
2023-02-15T22:07:02.192Z,36.10
2023-02-15T22:09:33.917Z,36.63
2023-02-15T22:12:18.649Z,35.75
2023-02-15T22:14:53.736Z,35.62
2023-02-15T22:17:26.776Z,34.92
2023-02-15T22:19:58.342Z,33.61
2023-02-15T22:22:29.998Z,34.63
2023-02-15T22:25:01.645Z,33.74
2023-02-15T22:27:39.676Z,33.73
2023-02-15T22:30:28.210Z,33.05
2023-02-15T22:33:00.760Z,32.75
2023-02-15T22:35:35.182Z,32.95
2023-02-15T22:38:06.817Z,32.89
2023-02-15T22:40:40.006Z,33.13
2023-02-15T22:43:22.344Z,31.95
2023-02-15T22:46:00.620Z,32.24
2023-02-15T22:48:32.667Z,31.65
2023-02-15T22:51:04.737Z,31.84
2023-02-15T22:53:36.480Z,31.87
2023-02-15T22:56:18.412Z,31.40
2023-02-15T22:58:50.012Z,31.18
2023-02-15T23:01:34.437Z,30.17
2023-02-15T23:04:06.133Z,30.34
2023-02-15T23:06:37.750Z,30.85
2023-02-15T23:09:11.532Z,30.17
2023-02-15T23:11:43.279Z,30.59
2023-02-15T23:14:33.873Z,29.78
2023-02-15T23:17:05.532Z,29.54
2023-02-15T23:19:37.167Z,29.77
2023-02-15T23:22:17.939Z,28.15
2023-02-15T23:24:52.869Z,28.33
2023-02-15T23:27:24.517Z,28.22
2023-02-15T23:29:56.099Z,27.78
2023-02-15T23:32:27.972Z,27.21
2023-02-15T23:34:59.633Z,27.57
2023-02-15T23:37:31.272Z,27.20
2023-02-15T23:40:02.887Z,27.75
2023-02-15T23:42:35.525Z,27.18
2023-02-15T23:45:22.283Z,26.77
2023-02-15T23:47:54.093Z,26.26
2023-02-15T23:50:30.535Z,25.75
2023-02-15T23:53:02.879Z,25.05
2023-02-15T23:55:42.394Z,25.23
2023-02-15T23:58:20.451Z,25.03
